Shinsen Maru — JG5654 — position and weather

sailwx.info

Track history (hours):
 
Tides and Currents Weather Stations Pressure Air Temp Water Temp Dewpoint Dewpoint Depression Visibility Wind Speed Wind Dir Waves Ship Positions

Shinsen Maru

Last reported at 2017-Sep-21 15:10 UTC. Time now 2017-Sep-22 04:33 UTC.
Position N 34°57' E 140°09'.

Length 160 m; draft 6.8 m.

Type: Cargo ship. MMSI: 431100987.

Date/timePositionNaut miles runAvg speedWind from/ knotsBaromVisibWave heightAir tempDewpointWater temp
2017-Sep-21 15:10N 34°57' E 140°09'419.1
2017-Sep-21 14:56N 34°55' E 140°04'1019.4
2017-Sep-21 14:26N 34°52' E 139°53'818.5
2017-Sep-21 13:59N 34°56' E 139°44'919.6
2017-Sep-21 13:31N 35°06' E 139°44'917.5
2017-Sep-21 13:00N 35°14' E 139°46'612.9
2017-Sep-21 12:31N 35°20' E 139°42'917.8
2017-Sep-21 12:01N 35°28' E 139°48'714.7
2017-Sep-21 11:31N 35°35' E 139°47'3 5.7
2017-Sep-21 10:56N 35°38' E 139°46'0 0.0
2017-Sep-21 10:29N 35°38' E 139°46'0 0.0
2017-Sep-21 09:56N 35°38' E 139°46'0 0.0
2017-Sep-21 09:29N 35°38' E 139°46'0 0.0
2017-Sep-21 08:56N 35°38' E 139°46'0 0.0
2017-Sep-21 08:29N 35°38' E 139°46'0 0.0
2017-Sep-21 07:56N 35°38' E 139°46'0 0.0
2017-Sep-21 07:20N 35°38' E 139°46'0 0.0
2017-Sep-21 06:59N 35°38' E 139°46'0 0.0
2017-Sep-21 06:31N 35°38' E 139°46'1 1.6
2017-Sep-21 06:00N 35°37' E 139°46'815.3
2017-Sep-21 05:30N 35°31' E 139°52'917.7
2017-Sep-21 05:00N 35°24' E 139°46'612.5
2017-Sep-21 04:30N 35°18' E 139°45'612.3
2017-Sep-21 04:01N 35°12' E 139°47'917.8
2017-Sep-21 03:30N 35°04' E 139°41'1020.0
2017-Sep-21 03:00N 34°57' E 139°32'23117.0
2017-Sep-20 13:24N 34°02' E 134°59'820.0
2017-Sep-20 13:00N 34°10' E 134°59'1218.2
2017-Sep-20 12:22N 34°22' E 135°00'719.0
2017-Sep-20 12:00N 34°26' E 135°07'1019.5
2017-Sep-20 11:30N 34°32' E 135°16'816.1
2017-Sep-20 11:00N 34°37' E 135°24'0 0.3
2017-Sep-20 09:29N 34°37' E 135°25'0 0.0
2017-Sep-20 08:53N 34°37' E 135°25'0 0.0
2017-Sep-20 08:29N 34°37' E 135°25'0 0.0
2017-Sep-20 06:05N 34°37' E 135°25'0 0.0
2017-Sep-20 05:35N 34°37' E 135°25'0 0.0
2017-Sep-20 04:17N 34°37' E 135°25'0 0.0
2017-Sep-20 03:53N 34°37' E 135°25'0 0.0
2017-Sep-20 03:27N 34°37' E 135°25'2 3.6
2017-Sep-20 03:01N 34°36' E 135°23'714.1
2017-Sep-20 02:30N 34°32' E 135°17'816.6
2017-Sep-20 02:00N 34°26' E 135°10'816.9
2017-Sep-20 01:30N 34°20' E 135°02'815.5
2017-Sep-20 01:00N 34°12' E 134°60'918.0
2017-Sep-20 00:30N 34°03' E 135°00'21315.3
2017-Sep-19 10:32N 34°46' E 139°14'217.2
2017-Sep-19 10:25N 34°47' E 139°15'717.5
2017-Sep-19 10:00N 34°53' E 139°21'917.0
2017-Sep-19 09:29N 34°58' E 139°29'917.6
2017-Sep-19 08:59N 35°03' E 139°38'817.3
2017-Sep-19 08:30N 35°09' E 139°45'713.7
2017-Sep-19 08:00N 35°16' E 139°46'713.3
2017-Sep-19 07:30N 35°22' E 139°42'918.7
2017-Sep-19 07:00N 35°29' E 139°50'815.3
2017-Sep-19 06:30N 35°36' E 139°46'2 3.1
2017-Sep-19 05:58N 35°38' E 139°46'0 0.0
2017-Sep-19 05:25N 35°38' E 139°46'0 0.1
2017-Sep-19 04:52N 35°38' E 139°46'0 0.0
2017-Sep-19 04:22N 35°38' E 139°46'0 0.1
2017-Sep-19 03:58N 35°38' E 139°46'0 0.0
2017-Sep-19 03:28N 35°38' E 139°46'0 0.0
2017-Sep-19 02:58N 35°38' E 139°46'0 0.0
2017-Sep-19 02:28N 35°38' E 139°46'0 0.0
2017-Sep-19 01:58N 35°38' E 139°46'0 0.1
2017-Sep-19 01:28N 35°38' E 139°46'0 0.0
2017-Sep-19 00:58N 35°38' E 139°46'0 0.1
2017-Sep-19 00:22N 35°38' E 139°46'0 0.0
2017-Sep-18 23:58N 35°38' E 139°46'0 0.0
2017-Sep-18 23:30N 35°38' E 139°46'1 1.5
2017-Sep-18 23:01N 35°37' E 139°46'714.8
2017-Sep-18 22:30N 35°31' E 139°52'917.0
2017-Sep-18 22:00N 35°24' E 139°46'612.1
2017-Sep-18 21:30N 35°18' E 139°45'510.7
2017-Sep-18 21:00N 35°13' E 139°47'815.8
2017-Sep-18 20:30N 35°06' E 139°45'918.2
2017-Sep-18 20:00N 34°57' E 139°44'815.1
2017-Sep-18 19:30N 34°51' E 139°51'816.9
2017-Sep-18 19:00N 34°54' E 140°00'1216.8
2017-Sep-18 18:18N 35°00' E 140°13'  
2017-Sep-13 15:19N 34°60' E 140°14'919.1
2017-Sep-13 14:51N 34°56' E 140°04'1018.6
2017-Sep-13 14:17N 34°52' E 139°52'619.4
2017-Sep-13 14:00N 34°55' E 139°47'919.0
2017-Sep-13 13:30N 35°04' E 139°44'918.5
2017-Sep-13 13:00N 35°13' E 139°47'612.5
2017-Sep-13 12:30N 35°19' E 139°44'815.1
2017-Sep-13 12:00N 35°26' E 139°45'816.3
2017-Sep-13 11:31N 35°33' E 139°50'611.3
2017-Sep-13 11:00N 35°38' E 139°46'0 0.1
2017-Sep-13 10:28N 35°38' E 139°46'0 0.0
2017-Sep-13 09:55N 35°38' E 139°46'0 0.0
2017-Sep-13 09:28N 35°38' E 139°46'0 0.0
2017-Sep-13 08:58N 35°38' E 139°46'0 0.0
2017-Sep-13 08:13N 35°38' E 139°46'0 0.0
2017-Sep-13 07:49N 35°38' E 139°46'0 0.0
2017-Sep-13 07:28N 35°38' E 139°46'0 0.0
2017-Sep-13 06:58N 35°38' E 139°46'0 0.0
2017-Sep-13 06:28N 35°38' E 139°46'0 0.0
2017-Sep-13 06:00N 35°38' E 139°46'3 5.6
2017-Sep-13 05:30N 35°36' E 139°47'815.1
2017-Sep-13 05:00N 35°29' E 139°51'816.4
2017-Sep-13 04:30N 35°22' E 139°45'611.5
2017-Sep-13 04:00N 35°16' E 139°46'612.5
2017-Sep-13 03:30N 35°10' E 139°46'918.9
2017-Sep-13 03:00N 35°02' E 139°41'1120.8
2017-Sep-13 02:28N 34°55' E 139°30'22916.8
2017-Sep-12 12:50N 34°02' E 134°60'618.8
2017-Sep-12 12:30N 34°08' E 134°59'1419.6
2017-Sep-12 11:47N 34°22' E 134°60'619.9
2017-Sep-12 11:30N 34°25' E 135°05'1020.6
2017-Sep-12 11:00N 34°32' E 135°15'917.1
2017-Sep-12 10:30N 34°36' E 135°24'1 1.0
2017-Sep-12 09:37N 34°37' E 135°25'0 0.0
2017-Sep-12 09:19N 34°37' E 135°25'0 0.0
2017-Sep-12 06:37N 34°37' E 135°25'0 0.0
2017-Sep-12 01:37N 34°37' E 135°25'0 0.1
2017-Sep-12 01:30N 34°37' E 135°25'2 4.2
2017-Sep-12 01:00N 34°36' E 135°22'816.0
2017-Sep-12 00:30N 34°31' E 135°15'917.9
2017-Sep-11 23:59N 34°24' E 135°07'918.2
2017-Sep-11 23:29N 34°18' E 134°60'817.7
2017-Sep-11 23:00N 34°09' E 135°01'918.0
2017-Sep-11 22:30N 34°00' E 135°02'  
Track history (hours):
 
Tides and Currents Weather Stations Pressure Air Temp Water Temp Dewpoint Dewpoint Depression Visibility Wind Speed Wind Dir Waves Ship Positions

Shinsen Maru

Last reported at 2017-Sep-21 15:10 UTC. Time now 2017-Sep-22 04:33 UTC.
Position N 34°57' E 140°09'.

Length 160 m; draft 6.8 m.

Type: Cargo ship. MMSI: 431100987.

Date/timePositionNaut miles runAvg speedWind from/ knotsBaromVisibWave heightAir tempDewpointWater temp
2017-Sep-21 15:10N 34°57' E 140°09'419.1
2017-Sep-21 14:56N 34°55' E 140°04'1019.4
2017-Sep-21 14:26N 34°52' E 139°53'818.5
2017-Sep-21 13:59N 34°56' E 139°44'919.6
2017-Sep-21 13:31N 35°06' E 139°44'917.5
2017-Sep-21 13:00N 35°14' E 139°46'612.9
2017-Sep-21 12:31N 35°20' E 139°42'917.8
2017-Sep-21 12:01N 35°28' E 139°48'714.7
2017-Sep-21 11:31N 35°35' E 139°47'3 5.7
2017-Sep-21 10:56N 35°38' E 139°46'0 0.0
2017-Sep-21 10:29N 35°38' E 139°46'0 0.0
2017-Sep-21 09:56N 35°38' E 139°46'0 0.0
2017-Sep-21 09:29N 35°38' E 139°46'0 0.0
2017-Sep-21 08:56N 35°38' E 139°46'0 0.0
2017-Sep-21 08:29N 35°38' E 139°46'0 0.0
2017-Sep-21 07:56N 35°38' E 139°46'0 0.0
2017-Sep-21 07:20N 35°38' E 139°46'0 0.0
2017-Sep-21 06:59N 35°38' E 139°46'0 0.0
2017-Sep-21 06:31N 35°38' E 139°46'1 1.6
2017-Sep-21 06:00N 35°37' E 139°46'815.3
2017-Sep-21 05:30N 35°31' E 139°52'917.7
2017-Sep-21 05:00N 35°24' E 139°46'612.5
2017-Sep-21 04:30N 35°18' E 139°45'612.3
2017-Sep-21 04:01N 35°12' E 139°47'917.8
2017-Sep-21 03:30N 35°04' E 139°41'1020.0
2017-Sep-21 03:00N 34°57' E 139°32'23117.0
2017-Sep-20 13:24N 34°02' E 134°59'820.0
2017-Sep-20 13:00N 34°10' E 134°59'1218.2
2017-Sep-20 12:22N 34°22' E 135°00'719.0
2017-Sep-20 12:00N 34°26' E 135°07'1019.5
2017-Sep-20 11:30N 34°32' E 135°16'816.1
2017-Sep-20 11:00N 34°37' E 135°24'0 0.3
2017-Sep-20 09:29N 34°37' E 135°25'0 0.0
2017-Sep-20 08:53N 34°37' E 135°25'0 0.0
2017-Sep-20 08:29N 34°37' E 135°25'0 0.0
2017-Sep-20 06:05N 34°37' E 135°25'0 0.0
2017-Sep-20 05:35N 34°37' E 135°25'0 0.0
2017-Sep-20 04:17N 34°37' E 135°25'0 0.0
2017-Sep-20 03:53N 34°37' E 135°25'0 0.0
2017-Sep-20 03:27N 34°37' E 135°25'2 3.6
2017-Sep-20 03:01N 34°36' E 135°23'714.1
2017-Sep-20 02:30N 34°32' E 135°17'816.6
2017-Sep-20 02:00N 34°26' E 135°10'816.9
2017-Sep-20 01:30N 34°20' E 135°02'815.5
2017-Sep-20 01:00N 34°12' E 134°60'918.0
2017-Sep-20 00:30N 34°03' E 135°00'21315.3
2017-Sep-19 10:32N 34°46' E 139°14'217.2
2017-Sep-19 10:25N 34°47' E 139°15'717.5
2017-Sep-19 10:00N 34°53' E 139°21'917.0
2017-Sep-19 09:29N 34°58' E 139°29'917.6
2017-Sep-19 08:59N 35°03' E 139°38'817.3
2017-Sep-19 08:30N 35°09' E 139°45'713.7
2017-Sep-19 08:00N 35°16' E 139°46'713.3
2017-Sep-19 07:30N 35°22' E 139°42'918.7
2017-Sep-19 07:00N 35°29' E 139°50'815.3
2017-Sep-19 06:30N 35°36' E 139°46'2 3.1
2017-Sep-19 05:58N 35°38' E 139°46'0 0.0
2017-Sep-19 05:25N 35°38' E 139°46'0 0.1
2017-Sep-19 04:52N 35°38' E 139°46'0 0.0
2017-Sep-19 04:22N 35°38' E 139°46'0 0.1
2017-Sep-19 03:58N 35°38' E 139°46'0 0.0
2017-Sep-19 03:28N 35°38' E 139°46'0 0.0
2017-Sep-19 02:58N 35°38' E 139°46'0 0.0
2017-Sep-19 02:28N 35°38' E 139°46'0 0.0
2017-Sep-19 01:58N 35°38' E 139°46'0 0.1
2017-Sep-19 01:28N 35°38' E 139°46'0 0.0
2017-Sep-19 00:58N 35°38' E 139°46'0 0.1
2017-Sep-19 00:22N 35°38' E 139°46'0 0.0
2017-Sep-18 23:58N 35°38' E 139°46'0 0.0
2017-Sep-18 23:30N 35°38' E 139°46'1 1.5
2017-Sep-18 23:01N 35°37' E 139°46'714.8
2017-Sep-18 22:30N 35°31' E 139°52'917.0
2017-Sep-18 22:00N 35°24' E 139°46'612.1
2017-Sep-18 21:30N 35°18' E 139°45'510.7
2017-Sep-18 21:00N 35°13' E 139°47'815.8
2017-Sep-18 20:30N 35°06' E 139°45'918.2
2017-Sep-18 20:00N 34°57' E 139°44'815.1
2017-Sep-18 19:30N 34°51' E 139°51'816.9
2017-Sep-18 19:00N 34°54' E 140°00'1216.8
2017-Sep-18 18:18N 35°00' E 140°13'  
2017-Sep-13 15:19N 34°60' E 140°14'919.1
2017-Sep-13 14:51N 34°56' E 140°04'1018.6
2017-Sep-13 14:17N 34°52' E 139°52'619.4
2017-Sep-13 14:00N 34°55' E 139°47'919.0
2017-Sep-13 13:30N 35°04' E 139°44'918.5
2017-Sep-13 13:00N 35°13' E 139°47'612.5
2017-Sep-13 12:30N 35°19' E 139°44'815.1
2017-Sep-13 12:00N 35°26' E 139°45'816.3
2017-Sep-13 11:31N 35°33' E 139°50'611.3
2017-Sep-13 11:00N 35°38' E 139°46'0 0.1
2017-Sep-13 10:28N 35°38' E 139°46'0 0.0
2017-Sep-13 09:55N 35°38' E 139°46'0 0.0
2017-Sep-13 09:28N 35°38' E 139°46'0 0.0
2017-Sep-13 08:58N 35°38' E 139°46'0 0.0
2017-Sep-13 08:13N 35°38' E 139°46'0 0.0
2017-Sep-13 07:49N 35°38' E 139°46'0 0.0
2017-Sep-13 07:28N 35°38' E 139°46'0 0.0
2017-Sep-13 06:58N 35°38' E 139°46'0 0.0
2017-Sep-13 06:28N 35°38' E 139°46'0 0.0
2017-Sep-13 06:00N 35°38' E 139°46'3 5.6
2017-Sep-13 05:30N 35°36' E 139°47'815.1
2017-Sep-13 05:00N 35°29' E 139°51'816.4
2017-Sep-13 04:30N 35°22' E 139°45'611.5
2017-Sep-13 04:00N 35°16' E 139°46'612.5
2017-Sep-13 03:30N 35°10' E 139°46'918.9
2017-Sep-13 03:00N 35°02' E 139°41'1120.8
2017-Sep-13 02:28N 34°55' E 139°30'22916.8
2017-Sep-12 12:50N 34°02' E 134°60'618.8
2017-Sep-12 12:30N 34°08' E 134°59'1419.6
2017-Sep-12 11:47N 34°22' E 134°60'619.9
2017-Sep-12 11:30N 34°25' E 135°05'1020.6
2017-Sep-12 11:00N 34°32' E 135°15'917.1
2017-Sep-12 10:30N 34°36' E 135°24'1 1.0
2017-Sep-12 09:37N 34°37' E 135°25'0 0.0
2017-Sep-12 09:19N 34°37' E 135°25'0 0.0
2017-Sep-12 06:37N 34°37' E 135°25'0 0.0
2017-Sep-12 01:37N 34°37' E 135°25'0 0.1
2017-Sep-12 01:30N 34°37' E 135°25'2 4.2
2017-Sep-12 01:00N 34°36' E 135°22'816.0
2017-Sep-12 00:30N 34°31' E 135°15'917.9
2017-Sep-11 23:59N 34°24' E 135°07'918.2
2017-Sep-11 23:29N 34°18' E 134°60'817.7
2017-Sep-11 23:00N 34°09' E 135°01'918.0
2017-Sep-11 22:30N 34°00' E 135°02'  

Dump ship's entire track history